Latest Weather Observations for Bunbury

IDW60801

Issued at 12:03 pm WST Monday 26 January 2015 (issued every 30 minutes, with the page automatically refreshed every 10 minutes)

About weather observations | Map of weather stations | Latest weather observations for WA | Other Formats
Station Details ID: 009965 Name: BUNBURY Lat: -33.36 Lon: 115.64 Height: 5.2 m
Data from the previous 72 hours. | See also: Recent months at Bunbury
Date/Time
WST
Temp
°C
App
Temp
°C
Dew
Point
Rel
Hum
%
Delta-T
°C
Wind Press
QNH
hPa
Press
MSL
hPa
Rain
since 9 am
mm
Dir
 
Spd
km/h
Gust
km/h
Spd
kts
Gust
kts
26/12:00pm 30.5 27.5 10.5 29 11.4 ESE 17 28 9 15 1012.8 1012.8 0.0
26/11:30am 29.6 26.9 10.2 30 11.0 ESE 15 24 8 13 1013.4 1013.4 0.0
26/11:00am 27.9 24.6 9.7 32 10.1 ESE 17 24 9 13 1014.1 1014.0 0.0
26/10:30am 26.9 23.4 10.2 35 9.3 E 19 30 10 16 1014.4 1014.3 0.0
26/10:00am 25.9 22.7 10.1 37 8.8 ESE 17 26 9 14 1014.9 1014.8 0.0
26/09:30am 24.4 20.7 9.6 39 8.1 ESE 19 26 10 14 1015.3 1015.2 0.0
26/09:00am 23.4 20.5 9.8 42 7.4 E 15 20 8 11 1015.6 1015.5 0.0
26/08:30am 21.5 17.9 9.7 47 6.3 E 19 24 10 13 1015.6 1015.5 0.0
26/08:00am 20.4 16.7 9.6 50 5.8 E 19 32 10 17 1016.2 1016.1 0.0
26/07:30am 19.2 16.2 9.4 53 5.2 ESE 15 22 8 12 1016.4 1016.3 0.0
26/07:00am 17.9 14.0 9.5 58 4.4 E 20 35 11 19 1016.6 1016.5 0.0
26/06:30am 16.6 13.2 9.3 62 3.8 E 17 26 9 14 1016.7 1016.6 0.0
26/06:00am 14.7 12.9 9.3 70 2.8 ESE 9 11 5 6 1016.9 1016.8 0.0
26/05:30am 14.3 12.4 8.9 70 2.7 ESE 9 15 5 8 1016.7 1016.6 0.0
26/05:00am 14.6 11.5 8.8 68 2.9 E 15 24 8 13 1016.5 1016.4 0.0
26/04:30am 14.6 11.4 8.5 67 3.1 ESE 15 24 8 13 1016.4 1016.3 0.0
26/04:00am 14.8 10.7 8.5 66 3.2 ESE 20 32 11 17 1016.3 1016.2 0.0
26/03:30am 14.8 10.6 8.3 65 3.3 ESE 20 35 11 19 1016.4 1016.3 0.0
26/03:00am 15.2 10.6 8.2 63 3.5 ESE 22 33 12 18 1016.5 1016.4 0.0
26/02:30am 15.5 10.9 8.0 61 3.8 ESE 22 32 12 17 1016.5 1016.4 0.0
26/02:00am 15.9 11.2 7.9 59 4.0 ESE 22 33 12 18 1016.5 1016.4 0.0
26/01:30am 16.8 11.8 8.0 56 4.5 ESE 24 37 13 20 1016.6 1016.5 0.0
26/01:00am 17.3 13.2 7.9 54 4.8 ESE 19 28 10 15 1016.3 1016.2 0.0
26/12:30am 18.4 13.8 8.1 51 5.3 ESE 22 37 12 20 1016.5 1016.4 0.0
26/12:00am 19.6 15.3 8.0 47 6.0 ESE 20 30 11 16 1016.4 1016.3 0.0
 
Date/Time
WST
Temp
°C
App
Temp
°C
Dew
Point
Rel
Hum
%
Delta-T
°C
Wind Press
QNH
hPa
Press
MSL
hPa
Rain
since 9 am
mm
Dir
 
Spd
km/h
Gust
km/h
Spd
kts
Gust
kts
25/11:30pm 20.7 15.7 8.0 44 6.6 ESE 24 35 13 19 1016.3 1016.2 0.0
25/11:00pm 21.7 16.6 7.5 40 7.3 ESE 24 35 13 19 1016.1 1016.0 0.0
25/10:30pm 22.6 17.8 7.2 37 8.0 ESE 22 33 12 18 1015.9 1015.8 0.0
25/10:00pm 22.3 19.1 6.9 37 7.9 SE 13 19 7 10 1015.8 1015.7 0.0
25/09:30pm 21.5 18.7 7.0 39 7.4 SE 11 15 6 8 1015.4 1015.3 0.0
25/09:00pm 22.3 19.8 8.4 41 7.3 S 11 17 6 9 1015.3 1015.2 0.0
25/08:30pm 23.6 21.4 6.0 32 9.0 SE 7 9 4 5 1015.0 1014.9 0.0
25/08:00pm 24.5 21.9 6.3 31 9.4 SE 9 13 5 7 1014.6 1014.5 0.0
25/07:30pm 25.9 23.4 6.5 29 10.1 SE 9 13 5 7 1014.4 1014.3 0.0
25/07:00pm 28.1 25.1 6.2 25 11.5 ESE 11 19 6 10 1014.1 1014.0 0.0
25/06:30pm 29.3 25.2 6.0 23 12.3 ESE 17 22 9 12 1013.8 1013.8 0.0
25/06:00pm 30.1 25.8 5.4 21 12.9 ESE 17 22 9 12 1013.8 1013.8 0.0
25/05:30pm 30.5 26.8 6.4 22 12.9 SE 15 24 8 13 1013.6 1013.6 0.0
25/05:00pm 30.6 26.9 6.5 22 12.9 SE 15 28 8 15 1013.8 1013.8 0.0
25/04:30pm 31.4 27.9 7.1 22 13.2 SE 15 24 8 13 1014.2 1014.1 0.0
25/04:00pm 31.1 27.3 7.5 23 12.9 ESE 17 28 9 15 1014.5 1014.4 0.0
25/03:30pm 31.2 27.6 8.2 24 12.7 ESE 17 28 9 15 1014.9 1014.8 0.0
25/03:00pm 30.8 27.6 8.5 25 12.3 E 15 24 8 13 1015.2 1015.1 0.0
25/02:30pm 30.6 28.0 9.5 27 11.9 ESE 13 30 7 16 1015.6 1015.5 0.0
25/02:00pm 29.4 26.2 8.5 27 11.5 SE 15 24 8 13 1015.9 1015.8 0.0
25/01:30pm 29.4 26.0 9.0 28 11.3 ESE 17 30 9 16 1016.3 1016.2 0.0
25/01:00pm 28.5 25.1 9.2 30 10.7 SE 17 30 9 16 1016.6 1016.5 0.0
25/12:30pm 27.7 24.4 9.5 32 10.1 SSE 17 26 9 14 1016.7 1016.6 0.0
25/12:00pm 26.9 22.6 9.3 33 9.7 SE 22 28 12 15 1017.3 1017.2 0.0
25/11:30am 25.6 21.9 9.4 36 8.9 ESE 19 28 10 15 1017.6 1017.5 0.0
25/11:00am 25.4 21.2 9.7 37 8.6 SE 22 35 12 19 1017.9 1017.8 0.0
25/10:30am 24.1 20.4 10.0 41 7.7 ESE 20 30 11 16 1018.2 1018.1 0.0
25/10:00am 22.8 19.1 10.3 45 6.8 E 20 32 11 17 1018.6 1018.5 0.0
25/09:30am 22.4 18.8 10.5 47 6.5 ESE 20 33 11 18 1019.0 1018.9 0.0
25/09:00am 21.2 17.2 10.4 50 5.9 E 22 35 12 19 1019.0 1018.9 0.0
25/08:30am 20.6 17.2 10.4 52 5.5 ESE 19 30 10 16 1019.0 1018.9 0.0
25/08:00am 19.3 15.2 10.0 55 5.0 SE 22 30 12 16 1019.0 1018.9 0.0
25/07:30am 18.3 14.8 10.2 59 4.3 ESE 19 28 10 15 1019.2 1019.1 0.0
25/07:00am 17.1 13.4 10.0 63 3.7 ESE 20 28 11 15 1019.0 1018.9 0.0
25/06:30am 16.0 13.2 9.9 67 3.2 SE 15 22 8 12 1018.7 1018.6 0.0
25/06:00am 15.1 12.7 9.9 71 2.7 SE 13 17 7 9 1018.5 1018.4 0.0
25/05:30am 14.8 12.1 10.2 74 2.4 SE 15 22 8 12 1018.0 1017.9 0.0
25/05:00am 14.9 12.2 10.5 75 2.3 SE 15 20 8 11 1017.9 1017.8 0.0
25/04:30am 15.4 12.4 10.8 74 2.4 SE 17 26 9 14 1017.6 1017.5 0.0
25/04:00am 15.2 12.9 10.6 74 2.4 SE 13 17 7 9 1017.4 1017.3 0.0
25/03:30am 15.5 13.3 10.7 73 2.5 ESE 13 20 7 11 1017.1 1017.0 0.0
25/03:00am 15.8 13.5 10.6 71 2.7 SE 13 20 7 11 1017.2 1017.1 0.0
25/02:30am 16.1 13.5 10.6 70 2.9 SE 15 22 8 12 1017.0 1016.9 0.0
25/02:00am 16.7 13.4 10.8 68 3.1 ESE 19 28 10 15 1016.8 1016.7 0.0
25/01:30am 17.0 13.4 10.6 66 3.4 ESE 20 30 11 16 1016.8 1016.7 0.0
25/01:00am 16.9 13.5 10.5 66 3.4 ESE 19 32 10 17 1016.8 1016.7 0.0
25/12:30am 17.2 13.2 10.6 65 3.5 SE 22 35 12 19 1016.8 1016.7 0.0
25/12:00am 17.4 14.0 10.5 64 3.7 SE 19 32 10 17 1016.9 1016.8 0.0
 
Date/Time
WST
Temp
°C
App
Temp
°C
Dew
Point
Rel
Hum
%
Delta-T
°C
Wind Press
QNH
hPa
Press
MSL
hPa
Rain
since 9 am
mm
Dir
 
Spd
km/h
Gust
km/h
Spd
kts
Gust
kts
24/11:30pm 18.0 14.5 10.9 63 3.8 SE 20 32 11 17 1017.1 1017.0 0.0
24/11:00pm 18.1 15.3 11.2 64 3.7 SE 17 24 9 13 1016.9 1016.8 0.0
24/10:30pm 18.5 15.8 11.6 64 3.8 SSE 17 28 9 15 1016.6 1016.5 0.0
24/10:00pm 18.7 15.9 11.5 63 3.9 SSE 17 26 9 14 1016.6 1016.5 0.0
24/09:30pm 18.9 16.1 11.5 62 4.1 SSE 17 26 9 14 1016.5 1016.4 0.0
24/09:00pm 19.1 15.9 11.4 61 4.2 S 19 26 10 14 1016.2 1016.1 0.0
24/08:30pm 19.6 16.2 11.1 58 4.6 S 20 30 11 16 1016.1 1016.0 0.0
24/08:00pm 20.1 16.9 11.1 56 4.9 S 19 30 10 16 1015.8 1015.7 0.0
24/07:30pm 20.8 17.4 11.2 54 5.3 S 20 30 11 16 1015.8 1015.7 0.0
24/07:00pm 22.1 18.8 11.5 51 5.9 S 20 30 11 16 1015.4 1015.3 0.0
24/06:30pm 23.1 19.9 11.8 49 6.4 S 20 28 11 15 1015.3 1015.2 0.0
24/06:00pm 24.2 20.6 11.9 46 7.0 S 22 33 12 18 1014.8 1014.7 0.0
24/05:30pm 26.3 23.5 11.2 38 8.6 SW 17 32 9 17 1014.5 1014.4 0.0
24/05:00pm 25.0 23.1 14.2 51 6.4 WSW 17 28 9 15 1014.7 1014.6 0.0
24/04:30pm 25.5 23.5 14.0 49 6.8 WSW 17 24 9 13 1015.0 1014.9 0.0
24/04:00pm 24.3 22.0 14.1 53 6.0 W 19 28 10 15 1015.4 1015.3 0.0
24/03:30pm 23.9 21.8 14.6 56 5.5 WSW 19 32 10 17 1015.4 1015.3 0.0
24/03:00pm 25.6 23.0 13.1 46 7.3 WSW 19 26 10 14 1015.5 1015.4 0.0
24/02:30pm 26.5 25.2 13.6 45 7.6 SW 13 22 7 12 1015.6 1015.5 0.0
24/02:00pm 27.5 25.0 11.1 36 9.3 SSE 15 24 8 13 1015.8 1015.7 0.0
24/01:30pm 26.3 25.0 11.2 38 8.6 SSE 9 19 5 10 1016.0 1015.9 0.0
24/01:00pm 25.3 23.3 11.5 42 7.8 S 13 19 7 10 1016.4 1016.3 0.0
24/12:30pm 24.7 23.4 11.3 43 7.5 SE 9 17 5 9 1016.6 1016.5 0.0
24/12:00pm 24.1 22.4 11.1 44 7.3 SSE 11 19 6 10 1016.9 1016.8 0.0
24/11:30am 24.5 21.9 10.8 42 7.6 SE 15 24 8 13 1017.3 1017.2 0.0
24/11:00am 24.8 23.0 11.0 42 7.7 S 11 19 6 10 1017.7 1017.6 0.0
24/10:30am 24.1 22.2 11.8 46 7.0 SE 13 24 7 13 1017.8 1017.7 0.0
24/10:00am 22.0 19.1 11.1 50 6.0 SSE 17 26 9 14 1018.2 1018.1 0.0
24/09:30am 20.9 18.1 11.5 55 5.2 SE 17 24 9 13 1018.3 1018.2 0.0
24/09:00am 20.6 18.2 11.5 56 5.0 SSE 15 20 8 11 1018.5 1018.4 0.0
24/08:30am 19.7 17.1 12.0 61 4.3 SE 17 30 9 16 1018.6 1018.5 0.0
24/08:00am 17.9 16.6 12.6 71 2.9 SE 11 19 6 10 1018.7 1018.6 0.0
24/07:30am 16.6 16.7 12.6 77 2.2 ESE 4 7 2 4 1018.6 1018.5 0.0
24/07:00am 14.3 14.5 13.0 92 0.7 S 4 6 2 3 1018.4 1018.3 0.0
24/06:30am 11.6 12.0 11.3 98 0.2 CALM 0 2 0 1 1018.2 1018.1 0.0
24/06:00am 10.0 9.2 9.7 98 0.1 S 4 6 2 3 1017.7 1017.6 0.0
24/05:30am 9.9 8.7 9.6 98 0.1 SSW 6 6 3 3 1017.4 1017.3 0.0
24/05:00am 9.6 9.5 9.3 98 0.1 CALM 0 0 0 0 1017.2 1017.1 0.0
24/04:30am 11.1 10.6 10.8 98 0.2 SSW 4 6 2 3 1016.8 1016.7 0.0
24/04:00am 11.4 10.6 11.1 98 0.2 S 6 9 3 5 1016.6 1016.5 0.0
24/03:30am 10.8 10.2 10.5 98 0.2 S 4 4 2 2 1016.3 1016.2 0.0
24/03:00am 11.9 11.9 11.1 95 0.4 SE 2 4 1 2 1016.4 1016.3 0.0
24/02:30am 13.0 12.2 11.2 89 0.9 S 6 7 3 4 1016.5 1016.4 0.0
24/02:00am 13.2 12.4 11.1 87 1.1 S 6 7 3 4 1016.3 1016.2 0.0
24/01:30am 13.9 13.3 11.6 86 1.2 S 6 9 3 5 1016.1 1016.0 0.0
24/01:00am 14.3 13.5 11.6 84 1.4 S 7 11 4 6 1016.3 1016.2 0.0
24/12:30am 14.6 13.8 11.6 82 1.6 SSE 7 11 4 6 1016.4 1016.3 0.0
24/12:00am 15.1 13.6 11.9 81 1.7 SSE 11 15 6 8 1016.3 1016.2 0.0
 
Date/Time
WST
Temp
°C
App
Temp
°C
Dew
Point
Rel
Hum
%
Delta-T
°C
Wind Press
QNH
hPa
Press
MSL
hPa
Rain
since 9 am
mm
Dir
 
Spd
km/h
Gust
km/h
Spd
kts
Gust
kts
23/11:30pm 15.4 13.9 12.0 80 1.8 SSE 11 17 6 9 1016.5 1016.4 0.0
23/11:00pm 15.9 14.5 12.1 78 2.1 SSE 11 17 6 9 1016.4 1016.3 0.0
23/10:30pm 16.1 14.7 12.1 77 2.2 SSE 11 17 6 9 1016.6 1016.5 0.0
23/10:00pm 16.7 15.0 12.3 75 2.4 SSE 13 20 7 11 1016.6 1016.5 0.0
23/09:30pm 17.4 14.4 12.5 73 2.7 S 20 35 11 19 1016.4 1016.3 0.0
23/09:00pm 17.9 14.9 12.6 71 2.9 S 20 30 11 16 1015.9 1015.8 0.0
23/08:30pm 18.8 15.3 12.3 66 3.6 S 22 30 12 16 1015.5 1015.4 0.0
23/08:00pm 19.9 16.3 11.9 60 4.4 S 22 33 12 18 1015.2 1015.1 0.0
23/07:30pm 21.6 18.4 11.9 54 5.4 S 20 32 11 17 1014.9 1014.8 0.0
23/07:00pm 23.3 19.7 11.7 48 6.5 SSW 22 33 12 18 1014.5 1014.4 0.0
23/06:30pm 25.4 20.9 10.1 38 8.5 SSW 24 33 13 18 1014.0 1013.9 0.0
23/06:00pm 27.0 22.4 9.8 34 9.5 SSW 24 35 13 19 1013.5 1013.5 0.0
23/05:30pm 28.3 23.6 9.1 30 10.6 S 24 33 13 18 1013.2 1013.2 0.0
23/05:00pm 29.6 25.8 9.7 29 11.2 S 20 30 11 16 1013.0 1013.0 0.0
23/04:30pm 27.1 25.5 15.1 47 7.3 WSW 17 24 9 13 1013.2 1013.2 0.0
23/04:00pm 25.4 23.4 15.4 54 6.0 W 20 30 11 16 1013.6 1013.6 0.0
23/03:30pm 25.0 23.0 15.6 56 5.7 WSW 20 32 11 17 1014.1 1014.0 0.0
23/03:00pm 24.5 22.1 15.4 57 5.5 W 22 32 12 17 1014.3 1014.2 0.0
23/02:30pm 24.9 22.1 14.4 52 6.2 W 22 30 12 16 1014.6 1014.5 0.0
23/02:00pm 25.0 22.4 13.2 48 6.9 W 19 26 10 14 1014.9 1014.8 0.0
23/01:30pm 24.1 21.4 14.5 55 5.7 W 22 28 12 15 1015.2 1015.1 0.0
23/01:00pm 24.4 22.4 13.9 52 6.2 W 17 24 9 13 1015.5 1015.4 0.0
23/12:30pm 24.0 21.6 13.8 53 6.0 W 19 24 10 13 1015.9 1015.8 0.0

Other Formats:

Comma delimited format used in spreadsheet applications
http://www.bom.gov.au/fwo/IDW60801/IDW60801.94604.axf

JavaScript Object Notation format (JSON) in row-major order
http://www.bom.gov.au/fwo/IDW60801/IDW60801.94604.json